Terminal Aerodrome Forecast
Issued by NWS

Home | Current Version | Previous Version | Text Only | Print | Product List | Glossary On
Versions: 1 2 3 4 5 6 7 8 9 10 11 12 13 14 15 16 17 18 19 20
000
FTUS43 KAPX 290900 AAA
TAFTVC
TAF AMD
KTVC 290925Z 2909/3006 00000KT P6SM SCT040 OVC090
     FM291000 14006KT P6SM -RA OVC035
     FM291700 16007KT P6SM VCSH OVC040
     FM292200 18005KT P6SM BKN100=

USA.gov is the U.S. government's official web portal to all federal, state and local government web resources and services.